sensor_id;sensor_type;location;lat;lon;timestamp;pressure;altitude;pressure_sealevel;temperature;humidity
75681;BME280;64294;49.176;16.626;2023-07-08T00:00:14;99868.88;;;17.11;67.88
75681;BME280;64294;49.176;16.626;2023-07-08T00:02:41;99865.28;;;16.95;68.04
75681;BME280;64294;49.176;16.626;2023-07-08T00:05:11;99865.28;;;16.88;68.97
75681;BME280;64294;49.176;16.626;2023-07-08T00:07:37;99869.44;;;16.79;68.93
75681;BME280;64294;49.176;16.626;2023-07-08T00:10:20;99864.53;;;16.80;69.12
75681;BME280;64294;49.176;16.626;2023-07-08T00:12:49;99870.94;;;16.88;68.21
75681;BME280;64294;49.176;16.626;2023-07-08T00:15:15;99870.78;;;16.78;67.80
75681;BME280;64294;49.176;16.626;2023-07-08T00:17:41;99877.75;;;16.70;67.85
75681;BME280;64294;49.176;16.626;2023-07-08T00:20:11;99871.69;;;16.73;68.12
75681;BME280;64294;49.176;16.626;2023-07-08T00:22:37;99874.91;;;16.70;67.85
75681;BME280;64294;49.176;16.626;2023-07-08T00:25:04;99871.69;;;16.65;68.36
75681;BME280;64294;49.176;16.626;2023-07-08T00:27:29;99872.44;;;16.58;69.42
75681;BME280;64294;49.176;16.626;2023-07-08T00:29:55;99873.19;;;16.51;69.35
75681;BME280;64294;49.176;16.626;2023-07-08T00:32:20;99878.13;;;16.58;68.82
75681;BME280;64294;49.176;16.626;2023-07-08T00:34:45;99873.38;;;16.53;69.31
75681;BME280;64294;49.176;16.626;2023-07-08T00:37:12;99870.16;;;16.42;69.16
75681;BME280;64294;49.176;16.626;2023-07-08T00:39:38;99872.63;;;16.38;69.37
75681;BME280;64294;49.176;16.626;2023-07-08T00:42:15;99874.84;;;16.24;69.88
75681;BME280;64294;49.176;16.626;2023-07-08T00:44:41;99872.97;;;16.26;70.48
75681;BME280;64294;49.176;16.626;2023-07-08T00:47:09;99869.56;;;16.28;70.46
75681;BME280;64294;49.176;16.626;2023-07-08T00:49:55;99880.13;;;16.20;71.03
75681;BME280;64294;49.176;16.626;2023-07-08T00:52:27;99869.72;;;16.15;72.03
75681;BME280;64294;49.176;16.626;2023-07-08T00:54:55;99875.38;;;16.07;73.45
75681;BME280;64294;49.176;16.626;2023-07-08T00:57:24;99866.84;;;15.99;73.73
75681;BME280;64294;49.176;16.626;2023-07-08T01:02:21;99868.91;;;15.99;74.64
75681;BME280;64294;49.176;16.626;2023-07-08T01:04:54;99875.34;;;15.99;74.78
75681;BME280;64294;49.176;16.626;2023-07-08T01:07:22;99880.66;;;16.03;75.15
75681;BME280;64294;49.176;16.626;2023-07-08T01:09:56;99884.81;;;16.02;75.16
75681;BME280;64294;49.176;16.626;2023-07-08T01:12:26;99871.16;;;15.93;76.19
75681;BME280;64294;49.176;16.626;2023-07-08T01:14:52;99882.47;;;15.85;76.69
75681;BME280;64294;49.176;16.626;2023-07-08T01:17:21;99877.19;;;15.82;77.14
75681;BME280;64294;49.176;16.626;2023-07-08T01:19:47;99879.41;;;15.75;77.20
75681;BME280;64294;49.176;16.626;2023-07-08T01:22:13;99878.66;;;15.75;77.38
75681;BME280;64294;49.176;16.626;2023-07-08T01:24:41;99872.75;;;15.65;78.46
75681;BME280;64294;49.176;16.626;2023-07-08T01:27:11;99868.34;;;15.57;78.63
75681;BME280;64294;49.176;16.626;2023-07-08T01:29:37;99866.22;;;15.50;79.01
75681;BME280;64294;49.176;16.626;2023-07-08T01:32:02;99873.91;;;15.41;80.35
75681;BME280;64294;49.176;16.626;2023-07-08T01:34:32;99861.78;;;15.33;80.82
75681;BME280;64294;49.176;16.626;2023-07-08T01:36:59;99863.84;;;15.25;80.83
75681;BME280;64294;49.176;16.626;2023-07-08T01:39:28;99862.28;;;15.24;80.07
75681;BME280;64294;49.176;16.626;2023-07-08T01:41:55;99857.56;;;15.19;81.02
75681;BME280;64294;49.176;16.626;2023-07-08T01:44:27;99864.72;;;15.20;81.30
75681;BME280;64294;49.176;16.626;2023-07-08T01:46:55;99869.19;;;15.08;81.66
75681;BME280;64294;49.176;16.626;2023-07-08T01:49:22;99866.84;;;14.99;82.39
75681;BME280;64294;49.176;16.626;2023-07-08T01:51:48;99873.84;;;14.98;82.21
75681;BME280;64294;49.176;16.626;2023-07-08T01:54:14;99864.63;;;15.05;81.57
75681;BME280;64294;49.176;16.626;2023-07-08T01:56:39;99864.75;;;14.92;82.15
75681;BME280;64294;49.176;16.626;2023-07-08T01:59:04;99864.38;;;14.95;81.24
75681;BME280;64294;49.176;16.626;2023-07-08T02:01:30;99865.69;;;14.94;81.25
75681;BME280;64294;49.176;16.626;2023-07-08T02:03:55;99863.78;;;14.89;81.88
75681;BME280;64294;49.176;16.626;2023-07-08T02:06:21;99864.53;;;14.90;81.70
75681;BME280;64294;49.176;16.626;2023-07-08T02:08:46;99861.72;;;14.90;80.81
75681;BME280;64294;49.176;16.626;2023-07-08T02:11:11;99862.22;;;15.09;78.98
75681;BME280;64294;49.176;16.626;2023-07-08T02:13:37;99852.78;;;15.06;79.60
75681;BME280;64294;49.176;16.626;2023-07-08T02:16:02;99845.66;;;15.21;78.73
75681;BME280;64294;49.176;16.626;2023-07-08T02:18:28;99847.94;;;15.22;78.65
75681;BME280;64294;49.176;16.626;2023-07-08T02:20:57;99844.97;;;15.28;78.01
75681;BME280;64294;49.176;16.626;2023-07-08T02:23:22;99842.16;;;15.35;77.09
75681;BME280;64294;49.176;16.626;2023-07-08T02:25:52;99840.66;;;15.34;76.79
75681;BME280;64294;49.176;16.626;2023-07-08T02:28:18;99854.63;;;15.32;77.29
75681;BME280;64294;49.176;16.626;2023-07-08T02:30:43;99848.03;;;15.37;76.48
75681;BME280;64294;49.176;16.626;2023-07-08T02:33:11;99849.16;;;15.34;76.51
75681;BME280;64294;49.176;16.626;2023-07-08T02:35:36;99846.69;;;15.31;76.94
75681;BME280;64294;49.176;16.626;2023-07-08T02:38:01;99841.22;;;15.33;76.48
75681;BME280;64294;49.176;16.626;2023-07-08T02:40:28;99837.25;;;15.36;76.17
75681;BME280;64294;49.176;16.626;2023-07-08T02:42:54;99841.97;;;15.33;76.53
75681;BME280;64294;49.176;16.626;2023-07-08T02:45:20;99834.63;;;15.38;76.23
75681;BME280;64294;49.176;16.626;2023-07-08T02:47:46;99836.13;;;15.31;75.96
75681;BME280;64294;49.176;16.626;2023-07-08T02:50:12;99836.50;;;15.35;76.52
75681;BME280;64294;49.176;16.626;2023-07-08T02:52:37;99830.44;;;15.31;76.03
75681;BME280;64294;49.176;16.626;2023-07-08T02:55:03;99839.13;;;15.26;76.41
75681;BME280;64294;49.176;16.626;2023-07-08T02:57:29;99835.00;;;15.34;76.02
75681;BME280;64294;49.176;16.626;2023-07-08T02:59:54;99838.75;;;15.29;76.52
75681;BME280;64294;49.176;16.626;2023-07-08T03:02:21;99838.38;;;15.33;76.22
75681;BME280;64294;49.176;16.626;2023-07-08T03:04:47;99842.91;;;15.28;76.34
75681;BME280;64294;49.176;16.626;2023-07-08T03:07:15;99836.13;;;15.31;76.41
75681;BME280;64294;49.176;16.626;2023-07-08T03:09:41;99834.59;;;15.30;76.31
75681;BME280;64294;49.176;16.626;2023-07-08T03:12:07;99832.28;;;15.21;76.86
75681;BME280;64294;49.176;16.626;2023-07-08T03:14:33;99829.63;;;15.23;77.03
75681;BME280;64294;49.176;16.626;2023-07-08T03:16:58;99828.69;;;15.21;76.92
75681;BME280;64294;49.176;16.626;2023-07-08T03:19:23;99829.97;;;15.12;77.45
75681;BME280;64294;49.176;16.626;2023-07-08T03:21:49;99832.47;;;15.23;76.79
75681;BME280;64294;49.176;16.626;2023-07-08T03:24:14;99837.94;;;15.21;76.98
75681;BME280;64294;49.176;16.626;2023-07-08T03:26:43;99835.72;;;15.27;76.92
75681;BME280;64294;49.176;16.626;2023-07-08T03:29:13;99844.72;;;15.18;77.47
75681;BME280;64294;49.176;16.626;2023-07-08T03:31:39;99843.03;;;15.23;77.23
75681;BME280;64294;49.176;16.626;2023-07-08T03:34:04;99844.06;;;15.33;76.58
75681;BME280;64294;49.176;16.626;2023-07-08T03:36:30;99850.44;;;15.26;77.48
75681;BME280;64294;49.176;16.626;2023-07-08T03:38:56;99846.34;;;15.42;76.36
75681;BME280;64294;49.176;16.626;2023-07-08T03:41:22;99848.97;;;15.40;76.80
75681;BME280;64294;49.176;16.626;2023-07-08T03:43:48;99851.97;;;15.34;77.28
75681;BME280;64294;49.176;16.626;2023-07-08T03:46:17;99853.69;;;15.37;77.31
75681;BME280;64294;49.176;16.626;2023-07-08T03:48:43;99855.94;;;15.31;78.26
75681;BME280;64294;49.176;16.626;2023-07-08T03:51:27;99851.97;;;15.34;78.15
75681;BME280;64294;49.176;16.626;2023-07-08T03:53:53;99845.03;;;15.43;77.91
75681;BME280;64294;49.176;16.626;2023-07-08T03:56:19;99854.09;;;15.41;77.65
75681;BME280;64294;49.176;16.626;2023-07-08T03:58:44;99850.00;;;15.50;77.34
75681;BME280;64294;49.176;16.626;2023-07-08T04:01:21;99851.50;;;15.51;78.03
75681;BME280;64294;49.176;16.626;2023-07-08T04:03:50;99851.91;;;15.55;77.97
75681;BME280;64294;49.176;16.626;2023-07-08T04:06:16;99850.38;;;15.54;78.51
75681;BME280;64294;49.176;16.626;2023-07-08T04:08:41;99858.03;;;15.67;77.76
75681;BME280;64294;49.176;16.626;2023-07-08T04:11:11;99857.09;;;15.64;77.80
75681;BME280;64294;49.176;16.626;2023-07-08T04:13:36;99855.41;;;15.69;77.29
75681;BME280;64294;49.176;16.626;2023-07-08T04:16:04;99854.84;;;15.78;76.48
75681;BME280;64294;49.176;16.626;2023-07-08T04:18:33;99861.88;;;15.85;76.23
75681;BME280;64294;49.176;16.626;2023-07-08T04:20:59;99849.03;;;15.84;76.03
75681;BME280;64294;49.176;16.626;2023-07-08T04:23:25;99849.97;;;15.86;75.90
75681;BME280;64294;49.176;16.626;2023-07-08T04:25:52;99861.31;;;15.86;75.62
75681;BME280;64294;49.176;16.626;2023-07-08T04:28:19;99855.72;;;16.01;74.58
75681;BME280;64294;49.176;16.626;2023-07-08T04:30:45;99854.00;;;16.14;73.68
75681;BME280;64294;49.176;16.626;2023-07-08T04:33:12;99854.25;;;16.31;72.28
75681;BME280;64294;49.176;16.626;2023-07-08T04:35:38;99863.34;;;16.37;71.90
75681;BME280;64294;49.176;16.626;2023-07-08T04:38:05;99853.69;;;16.48;72.12
75681;BME280;64294;49.176;16.626;2023-07-08T04:40:35;99863.38;;;16.68;71.15
75681;BME280;64294;49.176;16.626;2023-07-08T04:43:08;99854.13;;;16.67;71.45
75681;BME280;64294;49.176;16.626;2023-07-08T04:45:36;99866.44;;;16.77;71.10
75681;BME280;64294;49.176;16.626;2023-07-08T04:48:03;99861.88;;;16.97;70.17
75681;BME280;64294;49.176;16.626;2023-07-08T04:50:36;99869.97;;;17.08;69.79
75681;BME280;64294;49.176;16.626;2023-07-08T04:53:02;99872.06;;;17.08;69.69
75681;BME280;64294;49.176;16.626;2023-07-08T04:55:27;99873.19;;;17.20;68.44
75681;BME280;64294;49.176;16.626;2023-07-08T04:57:53;99873.53;;;17.39;68.85
75681;BME280;64294;49.176;16.626;2023-07-08T05:00:19;99868.19;;;17.51;68.42
75681;BME280;64294;49.176;16.626;2023-07-08T05:02:45;99878.78;;;17.58;67.79
75681;BME280;64294;49.176;16.626;2023-07-08T05:05:11;99882.16;;;17.64;66.76
75681;BME280;64294;49.176;16.626;2023-07-08T05:07:36;99884.97;;;17.79;66.25
75681;BME280;64294;49.176;16.626;2023-07-08T05:10:02;99882.31;;;17.89;65.12
75681;BME280;64294;49.176;16.626;2023-07-08T05:12:28;99881.06;;;18.07;64.24
75681;BME280;64294;49.176;16.626;2023-07-08T05:14:53;99885.94;;;18.22;62.87
75681;BME280;64294;49.176;16.626;2023-07-08T05:17:18;99893.13;;;18.23;63.80
75681;BME280;64294;49.176;16.626;2023-07-08T05:19:44;99892.16;;;18.53;62.63
75681;BME280;64294;49.176;16.626;2023-07-08T05:22:11;99896.41;;;18.44;61.85
75681;BME280;64294;49.176;16.626;2023-07-08T05:24:36;99895.34;;;18.65;61.69
75681;BME280;64294;49.176;16.626;2023-07-08T05:27:02;99900.47;;;18.59;61.63
75681;BME280;64294;49.176;16.626;2023-07-08T05:29:29;99897.22;;;18.70;61.10
75681;BME280;64294;49.176;16.626;2023-07-08T05:31:54;99902.66;;;18.75;61.06
75681;BME280;64294;49.176;16.626;2023-07-08T05:34:19;99891.81;;;18.82;60.89
75681;BME280;64294;49.176;16.626;2023-07-08T05:36:45;99899.56;;;19.06;60.23
75681;BME280;64294;49.176;16.626;2023-07-08T05:39:10;99894.81;;;19.09;59.83
75681;BME280;64294;49.176;16.626;2023-07-08T05:41:36;99893.13;;;19.05;61.17
75681;BME280;64294;49.176;16.626;2023-07-08T05:44:01;99893.75;;;19.21;60.73
75681;BME280;64294;49.176;16.626;2023-07-08T05:46:27;99900.53;;;19.26;60.85
75681;BME280;64294;49.176;16.626;2023-07-08T05:48:52;99897.84;;;19.28;60.17
75681;BME280;64294;49.176;16.626;2023-07-08T05:51:17;99891.44;;;19.62;58.76
75681;BME280;64294;49.176;16.626;2023-07-08T05:53:43;99896.88;;;19.85;57.34
75681;BME280;64294;49.176;16.626;2023-07-08T05:56:08;99897.91;;;20.07;55.53
75681;BME280;64294;49.176;16.626;2023-07-08T05:58:34;99886.25;;;20.12;55.55
75681;BME280;64294;49.176;16.626;2023-07-08T06:00:59;99880.28;;;20.45;55.11
75681;BME280;64294;49.176;16.626;2023-07-08T06:03:25;99892.59;;;20.74;53.99
75681;BME280;64294;49.176;16.626;2023-07-08T06:05:50;99891.63;;;20.99;52.98
75681;BME280;64294;49.176;16.626;2023-07-08T06:08:16;99886.94;;;21.69;51.99
75681;BME280;64294;49.176;16.626;2023-07-08T06:10:42;99891.38;;;22.30;49.84
75681;BME280;64294;49.176;16.626;2023-07-08T06:13:08;99890.56;;;23.84;44.82
75681;BME280;64294;49.176;16.626;2023-07-08T06:15:34;99885.69;;;25.60;39.98
75681;BME280;64294;49.176;16.626;2023-07-08T06:17:59;99896.59;;;26.77;38.02
75681;BME280;64294;49.176;16.626;2023-07-08T06:20:28;99888.94;;;27.37;36.34
75681;BME280;64294;49.176;16.626;2023-07-08T06:22:53;99887.56;;;28.11;35.44
75681;BME280;64294;49.176;16.626;2023-07-08T06:25:19;99883.84;;;29.34;32.95
75681;BME280;64294;49.176;16.626;2023-07-08T06:27:44;99875.25;;;29.88;31.87
75681;BME280;64294;49.176;16.626;2023-07-08T06:30:10;99878.91;;;30.61;30.30
75681;BME280;64294;49.176;16.626;2023-07-08T06:32:35;99871.13;;;31.06;29.93
75681;BME280;64294;49.176;16.626;2023-07-08T06:35:01;99870.69;;;31.55;29.24
75681;BME280;64294;49.176;16.626;2023-07-08T06:37:26;99863.31;;;30.90;29.63
75681;BME280;64294;49.176;16.626;2023-07-08T06:39:52;99858.44;;;30.20;30.56
75681;BME280;64294;49.176;16.626;2023-07-08T06:42:18;99858.34;;;28.81;33.71
75681;BME280;64294;49.176;16.626;2023-07-08T06:44:43;99858.16;;;28.30;34.16
75681;BME280;64294;49.176;16.626;2023-07-08T06:47:17;99852.81;;;26.95;35.56
75681;BME280;64294;49.176;16.626;2023-07-08T06:49:42;99862.97;;;27.09;36.34
75681;BME280;64294;49.176;16.626;2023-07-08T06:52:08;99859.69;;;27.15;36.22
75681;BME280;64294;49.176;16.626;2023-07-08T06:54:33;99849.94;;;26.81;37.16
75681;BME280;64294;49.176;16.626;2023-07-08T06:56:59;99859.41;;;26.42;37.85
75681;BME280;64294;49.176;16.626;2023-07-08T06:59:27;99851.41;;;26.54;37.58
75681;BME280;64294;49.176;16.626;2023-07-08T07:01:53;99854.50;;;26.59;37.41
75681;BME280;64294;49.176;16.626;2023-07-08T07:04:19;99854.28;;;26.54;37.87
75681;BME280;64294;49.176;16.626;2023-07-08T07:06:44;99848.59;;;26.04;37.04
75681;BME280;64294;49.176;16.626;2023-07-08T07:09:10;99852.56;;;26.49;36.61
75681;BME280;64294;49.176;16.626;2023-07-08T07:11:35;99857.19;;;26.29;37.97
75681;BME280;64294;49.176;16.626;2023-07-08T07:14:01;99855.34;;;26.08;37.21
75681;BME280;64294;49.176;16.626;2023-07-08T07:16:27;99852.22;;;25.79;37.50
75681;BME280;64294;49.176;16.626;2023-07-08T07:18:52;99851.06;;;26.09;38.07
75681;BME280;64294;49.176;16.626;2023-07-08T07:21:18;99843.75;;;25.94;37.52
75681;BME280;64294;49.176;16.626;2023-07-08T07:23:43;99844.66;;;26.11;36.53
75681;BME280;64294;49.176;16.626;2023-07-08T07:26:08;99846.28;;;26.53;36.55
75681;BME280;64294;49.176;16.626;2023-07-08T07:28:34;99841.50;;;26.71;35.65
75681;BME280;64294;49.176;16.626;2023-07-08T07:31:00;99836.59;;;27.15;35.79
75681;BME280;64294;49.176;16.626;2023-07-08T07:33:25;99835.72;;;26.71;34.98
75681;BME280;64294;49.176;16.626;2023-07-08T07:35:51;99834.47;;;27.02;34.89
75681;BME280;64294;49.176;16.626;2023-07-08T07:38:17;99833.94;;;27.49;33.55
75681;BME280;64294;49.176;16.626;2023-07-08T07:40:43;99832.97;;;27.58;34.13
75681;BME280;64294;49.176;16.626;2023-07-08T07:43:08;99829.31;;;28.16;33.64
75681;BME280;64294;49.176;16.626;2023-07-08T07:45:34;99829.44;;;28.34;32.72
75681;BME280;64294;49.176;16.626;2023-07-08T07:47:59;99819.28;;;27.72;33.44
75681;BME280;64294;49.176;16.626;2023-07-08T07:50:26;99821.31;;;27.56;33.43
75681;BME280;64294;49.176;16.626;2023-07-08T07:52:51;99821.44;;;27.87;33.28
75681;BME280;64294;49.176;16.626;2023-07-08T07:55:20;99821.00;;;28.24;33.30
75681;BME280;64294;49.176;16.626;2023-07-08T07:57:45;99824.78;;;28.90;33.96
75681;BME280;64294;49.176;16.626;2023-07-08T08:00:12;99825.75;;;29.46;32.72
75681;BME280;64294;49.176;16.626;2023-07-08T08:02:40;99821.19;;;29.94;31.25
75681;BME280;64294;49.176;16.626;2023-07-08T08:05:05;99819.88;;;29.97;30.02
75681;BME280;64294;49.176;16.626;2023-07-08T08:07:30;99829.78;;;30.10;31.30
75681;BME280;64294;49.176;16.626;2023-07-08T08:09:56;99825.91;;;30.41;31.02
75681;BME280;64294;49.176;16.626;2023-07-08T08:12:21;99829.28;;;30.53;28.97
75681;BME280;64294;49.176;16.626;2023-07-08T08:14:50;99833.84;;;30.03;27.97
75681;BME280;64294;49.176;16.626;2023-07-08T08:17:15;99845.88;;;29.60;28.97
75681;BME280;64294;49.176;16.626;2023-07-08T08:19:40;99843.81;;;29.29;29.72
75681;BME280;64294;49.176;16.626;2023-07-08T08:22:06;99834.03;;;30.44;29.33
75681;BME280;64294;49.176;16.626;2023-07-08T08:24:32;99831.78;;;30.05;28.33
75681;BME280;64294;49.176;16.626;2023-07-08T08:26:58;99831.56;;;30.74;27.90
75681;BME280;64294;49.176;16.626;2023-07-08T08:29:23;99834.00;;;30.62;27.77
75681;BME280;64294;49.176;16.626;2023-07-08T08:31:49;99832.91;;;30.34;28.03
75681;BME280;64294;49.176;16.626;2023-07-08T08:34:15;99826.97;;;30.12;29.03
75681;BME280;64294;49.176;16.626;2023-07-08T08:36:41;99837.97;;;30.33;29.87
75681;BME280;64294;49.176;16.626;2023-07-08T08:39:08;99837.06;;;30.49;25.52
75681;BME280;64294;49.176;16.626;2023-07-08T08:41:35;99830.31;;;30.42;26.55
75681;BME280;64294;49.176;16.626;2023-07-08T08:44:02;99824.88;;;30.32;26.14
75681;BME280;64294;49.176;16.626;2023-07-08T08:49:30;99810.91;;;30.47;26.61
75681;BME280;64294;49.176;16.626;2023-07-08T08:51:58;99810.72;;;30.23;26.09
75681;BME280;64294;49.176;16.626;2023-07-08T08:54:24;99809.59;;;30.50;25.98
75681;BME280;64294;49.176;16.626;2023-07-08T08:57:32;99811.22;;;30.55;26.56
75681;BME280;64294;49.176;16.626;2023-07-08T09:00:01;99804.59;;;30.32;26.63
75681;BME280;64294;49.176;16.626;2023-07-08T09:02:40;99794.00;;;30.21;24.00
75681;BME280;64294;49.176;16.626;2023-07-08T09:05:10;99804.94;;;30.23;23.30
75681;BME280;64294;49.176;16.626;2023-07-08T09:10:53;99787.47;;;30.60;23.57
75681;BME280;64294;49.176;16.626;2023-07-08T09:13:25;99791.13;;;30.61;24.61
75681;BME280;64294;49.176;16.626;2023-07-08T09:15:59;99787.84;;;30.31;24.92
75681;BME280;64294;49.176;16.626;2023-07-08T09:18:32;99789.41;;;30.93;25.05
75681;BME280;64294;49.176;16.626;2023-07-08T09:21:03;99785.09;;;31.36;23.77
75681;BME280;64294;49.176;16.626;2023-07-08T09:23:35;99797.72;;;31.23;24.02
75681;BME280;64294;49.176;16.626;2023-07-08T09:26:05;99788.31;;;31.90;24.70
75681;BME280;64294;49.176;16.626;2023-07-08T09:28:42;99774.56;;;32.16;23.75
75681;BME280;64294;49.176;16.626;2023-07-08T09:31:24;99770.19;;;32.15;23.70
75681;BME280;64294;49.176;16.626;2023-07-08T09:33:51;99781.56;;;31.83;23.30
75681;BME280;64294;49.176;16.626;2023-07-08T09:36:21;99782.09;;;31.78;23.68
75681;BME280;64294;49.176;16.626;2023-07-08T09:38:48;99782.31;;;31.18;23.19
75681;BME280;64294;49.176;16.626;2023-07-08T09:41:29;99781.47;;;30.34;24.27
75681;BME280;64294;49.176;16.626;2023-07-08T09:46:51;99761.16;;;31.59;23.65
75681;BME280;64294;49.176;16.626;2023-07-08T09:49:23;99761.22;;;32.07;23.67
75681;BME280;64294;49.176;16.626;2023-07-08T09:51:50;99765.91;;;31.94;24.46
75681;BME280;64294;49.176;16.626;2023-07-08T09:54:17;99767.09;;;30.38;27.24
75681;BME280;64294;49.176;16.626;2023-07-08T09:56:46;99767.25;;;29.67;27.10
75681;BME280;64294;49.176;16.626;2023-07-08T09:59:26;99773.19;;;29.71;28.05
75681;BME280;64294;49.176;16.626;2023-07-08T10:01:53;99765.13;;;29.88;26.87
75681;BME280;64294;49.176;16.626;2023-07-08T10:04:19;99759.13;;;30.98;26.43
75681;BME280;64294;49.176;16.626;2023-07-08T10:06:45;99760.50;;;31.39;25.11
75681;BME280;64294;49.176;16.626;2023-07-08T10:09:14;99763.34;;;31.81;24.41
75681;BME280;64294;49.176;16.626;2023-07-08T10:11:48;99760.41;;;31.59;24.03
75681;BME280;64294;49.176;16.626;2023-07-08T10:14:56;99752.81;;;32.17;23.73
75681;BME280;64294;49.176;16.626;2023-07-08T10:17:23;99748.16;;;31.39;24.47
75681;BME280;64294;49.176;16.626;2023-07-08T10:19:49;99750.31;;;32.32;25.62
75681;BME280;64294;49.176;16.626;2023-07-08T10:23:17;99756.72;;;32.78;23.45
75681;BME280;64294;49.176;16.626;2023-07-08T10:25:32;99744.28;;;33.31;23.69
75681;BME280;64294;49.176;16.626;2023-07-08T10:28:23;99737.81;;;33.65;23.52
75681;BME280;64294;49.176;16.626;2023-07-08T10:36:21;99740.97;;;32.61;22.37
75681;BME280;64294;49.176;16.626;2023-07-08T10:41:34;99739.81;;;32.20;23.01
75681;BME280;64294;49.176;16.626;2023-07-08T11:00:11;99726.78;;;31.74;22.91
75681;BME280;64294;49.176;16.626;2023-07-08T11:05:45;99720.63;;;32.61;21.91
75681;BME280;64294;49.176;16.626;2023-07-08T11:08:23;99727.91;;;32.62;21.98
75681;BME280;64294;49.176;16.626;2023-07-08T11:11:01;99727.75;;;32.56;21.75
75681;BME280;64294;49.176;16.626;2023-07-08T11:13:30;99723.28;;;33.07;21.84
75681;BME280;64294;49.176;16.626;2023-07-08T11:16:15;99727.81;;;33.12;21.42
75681;BME280;64294;49.176;16.626;2023-07-08T11:21:27;99710.22;;;33.08;22.21
75681;BME280;64294;49.176;16.626;2023-07-08T11:26:45;99716.00;;;32.02;22.28
75681;BME280;64294;49.176;16.626;2023-07-08T11:29:22;99710.56;;;32.92;21.78
75681;BME280;64294;49.176;16.626;2023-07-08T11:31:48;99715.00;;;32.95;21.83
75681;BME280;64294;49.176;16.626;2023-07-08T11:34:16;99705.66;;;32.73;22.76
75681;BME280;64294;49.176;16.626;2023-07-08T11:36:43;99704.13;;;33.28;22.34
75681;BME280;64294;49.176;16.626;2023-07-08T11:39:31;99697.59;;;33.57;20.65
75681;BME280;64294;49.176;16.626;2023-07-08T11:42:17;99694.84;;;33.65;21.06
75681;BME280;64294;49.176;16.626;2023-07-08T11:45:08;99690.56;;;34.02;22.01
75681;BME280;64294;49.176;16.626;2023-07-08T11:47:46;99675.34;;;34.40;22.86
75681;BME280;64294;49.176;16.626;2023-07-08T11:50:24;99689.41;;;33.84;21.70
75681;BME280;64294;49.176;16.626;2023-07-08T11:53:11;99688.91;;;33.29;21.44
75681;BME280;64294;49.176;16.626;2023-07-08T11:55:44;99695.31;;;33.54;22.65
75681;BME280;64294;49.176;16.626;2023-07-08T11:58:49;99681.19;;;34.42;22.33
75681;BME280;64294;49.176;16.626;2023-07-08T12:01:23;99673.75;;;34.75;20.07
75681;BME280;64294;49.176;16.626;2023-07-08T12:03:55;99674.09;;;35.36;20.04
75681;BME280;64294;49.176;16.626;2023-07-08T12:08:59;99669.84;;;36.62;18.72
75681;BME280;64294;49.176;16.626;2023-07-08T12:11:33;99673.88;;;36.30;19.38
75681;BME280;64294;49.176;16.626;2023-07-08T12:14:01;99666.41;;;36.15;18.60
75681;BME280;64294;49.176;16.626;2023-07-08T12:16:29;99669.06;;;35.93;19.30
75681;BME280;64294;49.176;16.626;2023-07-08T12:19:02;99672.28;;;36.19;19.05
75681;BME280;64294;49.176;16.626;2023-07-08T12:21:30;99647.66;;;36.38;19.53
75681;BME280;64294;49.176;16.626;2023-07-08T12:24:03;99660.16;;;35.85;18.35
75681;BME280;64294;49.176;16.626;2023-07-08T12:26:29;99656.09;;;36.08;20.43
75681;BME280;64294;49.176;16.626;2023-07-08T12:28:56;99647.81;;;36.53;18.52
75681;BME280;64294;49.176;16.626;2023-07-08T12:31:22;99648.75;;;36.78;19.24
75681;BME280;64294;49.176;16.626;2023-07-08T12:33:51;99643.53;;;36.66;18.35
75681;BME280;64294;49.176;16.626;2023-07-08T12:36:25;99636.91;;;35.95;20.60
75681;BME280;64294;49.176;16.626;2023-07-08T12:38:53;99639.53;;;35.72;21.31
75681;BME280;64294;49.176;16.626;2023-07-08T12:41:25;99635.78;;;35.68;20.66
75681;BME280;64294;49.176;16.626;2023-07-08T12:43:51;99642.31;;;35.64;20.01
75681;BME280;64294;49.176;16.626;2023-07-08T12:46:19;99636.47;;;35.62;20.21
75681;BME280;64294;49.176;16.626;2023-07-08T12:48:45;99644.41;;;35.56;18.47
75681;BME280;64294;49.176;16.626;2023-07-08T12:51:16;99636.16;;;34.96;21.46
75681;BME280;64294;49.176;16.626;2023-07-08T12:53:43;99645.03;;;34.59;20.42
75681;BME280;64294;49.176;16.626;2023-07-08T12:56:09;99646.47;;;33.52;20.50
75681;BME280;64294;49.176;16.626;2023-07-08T12:58:44;99631.72;;;33.78;20.08
75681;BME280;64294;49.176;16.626;2023-07-08T13:01:16;99631.63;;;33.72;21.10
75681;BME280;64294;49.176;16.626;2023-07-08T13:03:44;99629.03;;;33.54;21.78
75681;BME280;64294;49.176;16.626;2023-07-08T13:06:16;99624.13;;;33.63;22.35
75681;BME280;64294;49.176;16.626;2023-07-08T13:08:42;99626.75;;;33.49;20.81
75681;BME280;64294;49.176;16.626;2023-07-08T13:11:08;99632.00;;;32.66;21.38
75681;BME280;64294;49.176;16.626;2023-07-08T13:13:43;99623.59;;;32.50;22.55
75681;BME280;64294;49.176;16.626;2023-07-08T13:16:12;99627.09;;;32.45;22.50
75681;BME280;64294;49.176;16.626;2023-07-08T13:18:40;99629.13;;;32.96;23.21
75681;BME280;64294;49.176;16.626;2023-07-08T13:21:07;99619.41;;;32.58;22.65
75681;BME280;64294;49.176;16.626;2023-07-08T13:23:34;99616.84;;;32.72;22.72
75681;BME280;64294;49.176;16.626;2023-07-08T13:26:00;99607.59;;;32.23;23.68
75681;BME280;64294;49.176;16.626;2023-07-08T13:28:30;99625.75;;;31.98;22.68
75681;BME280;64294;49.176;16.626;2023-07-08T13:31:14;99614.13;;;32.24;23.62
75681;BME280;64294;49.176;16.626;2023-07-08T13:33:48;99614.16;;;32.52;23.27
75681;BME280;64294;49.176;16.626;2023-07-08T13:36:16;99620.63;;;31.97;23.96
75681;BME280;64294;49.176;16.626;2023-07-08T13:38:44;99609.75;;;31.47;24.90
75681;BME280;64294;49.176;16.626;2023-07-08T13:41:17;99613.06;;;31.85;25.04
75681;BME280;64294;49.176;16.626;2023-07-08T13:43:44;99609.34;;;32.35;25.74